Time;durP1;ratioP1;P1;durP2;ratioP2;P2;SDS_P1;SDS_P2;PMS_P1;PMS_P2;Temp;Humidity;BMP_temperature;BMP_pressure;BME280_temperature;BME280_humidity;BME280_pressure;Samples;Min_cycle;Max_cycle;Signal;HPM_P1;HPM_P2
2021/05/07 00:00:28;;;;;;;17.95;9.32;;;;;;;;;;5055592;28;20127;-64
2021/05/07 00:03:13;;;;;;;18.00;10.13;;;;;;;;;;5055258;28;20049;-62
2021/05/07 00:05:59;;;;;;;11.98;9.10;;;;;;;;;;5056046;28;20045;-64
2021/05/07 00:08:44;;;;;;;13.75;9.40;;;;;;;;;;5055400;28;20049;-63
2021/05/07 00:11:31;;;;;;;10.40;7.85;;;;;;;;;;5057516;28;20060;-64
2021/05/07 00:14:17;;;;;;;10.13;7.85;;;;;;;;;;5048364;28;20049;-64
2021/05/07 00:17:02;;;;;;;10.63;6.88;;;;;;;;;;5035866;28;20438;-64
2021/05/07 00:19:48;;;;;;;10.32;6.32;;;;;;;;;;5034851;28;20144;-63
2021/05/07 00:22:33;;;;;;;10.90;6.88;;;;;;;;;;5035800;28;20401;-64
2021/05/07 00:25:19;;;;;;;8.35;6.07;;;;;;;;;;5046149;28;20486;-64
2021/05/07 00:28:05;;;;;;;7.90;6.40;;;;;;;;;;5055597;28;20044;-63
2021/05/07 00:30:50;;;;;;;8.95;5.78;;;;;;;;;;5055191;28;20045;-63
2021/05/07 00:33:36;;;;;;;8.82;5.90;;;;;;;;;;5055472;28;20045;-63
2021/05/07 00:36:22;;;;;;;7.10;6.30;;;;;;;;;;5037255;28;20081;-64
2021/05/07 00:39:08;;;;;;;9.57;7.15;;;;;;;;;;5035406;28;20053;-64
2021/05/07 00:41:53;;;;;;;9.95;7.25;;;;;;;;;;5035112;28;20103;-63
2021/05/07 00:44:38;;;;;;;10.05;7.05;;;;;;;;;;5019196;28;20152;-64
2021/05/07 00:47:24;;;;;;;8.15;6.38;;;;;;;;;;5019726;28;20120;-64
2021/05/07 00:50:10;;;;;;;6.85;5.57;;;;;;;;;;5034084;28;20046;-63
2021/05/07 00:52:56;;;;;;;8.38;6.55;;;;;;;;;;5034819;28;20068;-64
2021/05/07 00:55:41;;;;;;;8.40;5.85;;;;;;;;;;5040158;28;20045;-64
2021/05/07 00:58:31;;;;;;;10.10;5.70;;;;;;;;;;5053307;28;20041;-63
2021/05/07 01:01:16;;;;;;;9.63;5.15;;;;;;;;;;5054616;28;20087;-64
2021/05/07 01:04:02;;;;;;;11.88;6.65;;;;;;;;;;5054968;28;20135;-64
2021/05/07 01:06:47;;;;;;;11.35;6.93;;;;;;;;;;5039269;28;20032;-63
2021/05/07 01:09:33;;;;;;;9.70;6.13;;;;;;;;;;5055797;28;20101;-63
2021/05/07 01:12:18;;;;;;;10.50;7.05;;;;;;;;;;5039960;28;20049;-64
2021/05/07 01:15:14;;;;;;;11.07;7.93;;;;;;;;;;5054801;28;20060;-64
2021/05/07 01:18:02;;;;;;;10.23;6.45;;;;;;;;;;5053993;28;20052;-63
2021/05/07 01:20:47;;;;;;;11.85;7.40;;;;;;;;;;5039250;28;20053;-62
2021/05/07 01:23:33;;;;;;;12.45;8.63;;;;;;;;;;5054707;28;20056;-64
2021/05/07 01:26:18;;;;;;;10.93;7.80;;;;;;;;;;5049936;28;20045;-62
2021/05/07 01:29:10;;;;;;;11.05;8.70;;;;;;;;;;5032008;28;20067;-62
2021/05/07 01:31:56;;;;;;;17.17;10.18;;;;;;;;;;5032180;28;20049;-62
2021/05/07 01:34:42;;;;;;;12.10;7.88;;;;;;;;;;5032169;28;20050;-62
2021/05/07 01:37:28;;;;;;;8.60;6.85;;;;;;;;;;5031674;28;20523;-62
2021/05/07 01:40:14;;;;;;;10.32;7.25;;;;;;;;;;5017148;28;20103;-62
2021/05/07 01:42:59;;;;;;;10.93;8.10;;;;;;;;;;5017121;28;20053;-62
2021/05/07 01:45:45;;;;;;;9.43;6.95;;;;;;;;;;5031072;28;20045;-62
2021/05/07 01:48:32;;;;;;;9.73;6.88;;;;;;;;;;5025573;28;20180;-62
2021/05/07 01:51:18;;;;;;;10.57;7.25;;;;;;;;;;5016878;28;20049;-62
2021/05/07 01:54:05;;;;;;;8.52;7.10;;;;;;;;;;5031813;28;20073;-62
2021/05/07 01:56:50;;;;;;;12.68;7.63;;;;;;;;;;5031954;28;20041;-62
2021/05/07 01:59:36;;;;;;;10.18;7.80;;;;;;;;;;5031780;28;20053;-62
2021/05/07 02:02:21;;;;;;;10.15;7.47;;;;;;;;;;5023532;28;20049;-62
2021/05/07 02:05:07;;;;;;;10.20;7.07;;;;;;;;;;5033820;28;20048;-62
2021/05/07 02:07:53;;;;;;;11.48;7.32;;;;;;;;;;5040780;28;20399;-62
2021/05/07 02:10:38;;;;;;;11.73;8.50;;;;;;;;;;5058110;28;20045;-62
2021/05/07 02:13:23;;;;;;;11.68;8.25;;;;;;;;;;5058228;28;20045;-62
2021/05/07 02:16:12;;;;;;;11.65;8.15;;;;;;;;;;5043312;28;20049;-62
2021/05/07 02:18:59;;;;;;;10.80;8.52;;;;;;;;;;5032020;28;20160;-61
2021/05/07 02:21:44;;;;;;;13.70;10.40;;;;;;;;;;5038421;28;20053;-62
2021/05/07 02:24:29;;;;;;;17.88;10.95;;;;;;;;;;5023302;28;20057;-63
2021/05/07 02:27:14;;;;;;;14.98;10.65;;;;;;;;;;5038255;28;20120;-63
2021/05/07 02:30:00;;;;;;;13.73;9.60;;;;;;;;;;5022883;28;20065;-63
2021/05/07 02:32:45;;;;;;;14.43;10.75;;;;;;;;;;5038332;28;20132;-63
2021/05/07 02:35:35;;;;;;;14.90;10.88;;;;;;;;;;5038153;28;20136;-63
2021/05/07 02:38:21;;;;;;;16.33;10.77;;;;;;;;;;5038396;28;20049;-63
2021/05/07 02:41:06;;;;;;;15.48;10.63;;;;;;;;;;5037846;28;20180;-63
2021/05/07 02:43:52;;;;;;;17.55;11.45;;;;;;;;;;5082610;22;20445;-61
2021/05/07 02:46:45;;;;;;;16.92;11.15;;;;;;;;;;5057212;28;20232;-62
2021/05/07 02:49:39;;;;;;;12.85;9.00;;;;;;;;;;5057004;28;20045;-61
2021/05/07 02:52:25;;;;;;;12.40;10.00;;;;;;;;;;5056897;28;20048;-61
2021/05/07 02:55:11;;;;;;;16.13;11.70;;;;;;;;;;5058170;28;20079;-61
2021/05/07 02:57:56;;;;;;;16.25;11.60;;;;;;;;;;5058062;28;20053;-62
2021/05/07 03:00:42;;;;;;;24.13;12.27;;;;;;;;;;5068570;28;20402;-62
2021/05/07 03:03:27;;;;;;;17.35;11.95;;;;;;;;;;5077998;28;20048;-62
2021/05/07 03:06:13;;;;;;;19.73;12.43;;;;;;;;;;5078032;28;20044;-62
2021/05/07 03:08:58;;;;;;;17.42;11.65;;;;;;;;;;5078007;28;20128;-61
2021/05/07 03:11:44;;;;;;;22.15;12.95;;;;;;;;;;5073787;28;20059;-61
2021/05/07 03:14:30;;;;;;;21.88;11.80;;;;;;;;;;5074756;28;20048;-62
2021/05/07 03:17:15;;;;;;;17.92;11.65;;;;;;;;;;5074756;28;20568;-61
2021/05/07 03:20:00;;;;;;;18.00;11.73;;;;;;;;;;5072937;28;20045;-61
2021/05/07 03:22:46;;;;;;;19.20;11.30;;;;;;;;;;5034766;28;20054;-61
2021/05/07 03:25:31;;;;;;;20.70;12.38;;;;;;;;;;5034603;28;20133;-61
2021/05/07 03:28:17;;;;;;;21.65;13.50;;;;;;;;;;5034592;28;20555;-62
2021/05/07 03:31:02;;;;;;;20.95;13.63;;;;;;;;;;5034389;28;20085;-62
2021/05/07 03:33:48;;;;;;;20.00;13.73;;;;;;;;;;5034595;28;20077;-62
2021/05/07 03:36:33;;;;;;;19.13;11.95;;;;;;;;;;5034712;28;20053;-62
2021/05/07 03:39:18;;;;;;;23.50;14.35;;;;;;;;;;5040771;28;20127;-62
2021/05/07 03:42:04;;;;;;;26.95;14.15;;;;;;;;;;5074305;28;20102;-61
2021/05/07 03:44:50;;;;;;;22.40;14.13;;;;;;;;;;5074218;28;20131;-63
2021/05/07 03:47:35;;;;;;;20.95;13.75;;;;;;;;;;5073273;28;20041;-62
2021/05/07 03:50:20;;;;;;;22.70;15.48;;;;;;;;;;5070694;28;20053;-61
2021/05/07 03:53:05;;;;;;;25.27;15.10;;;;;;;;;;5074082;28;20497;-61
2021/05/07 03:55:51;;;;;;;22.13;14.80;;;;;;;;;;5074159;28;20052;-62
2021/05/07 03:58:36;;;;;;;21.35;14.25;;;;;;;;;;5073983;28;20052;-60
2021/05/07 04:01:24;;;;;;;23.70;14.45;;;;;;;;;;5070587;28;20110;-61
2021/05/07 04:04:10;;;;;;;22.05;14.73;;;;;;;;;;5073743;28;20494;-61
2021/05/07 04:06:55;;;;;;;21.48;13.23;;;;;;;;;;5073795;28;20076;-61
2021/05/07 04:09:47;;;;;;;20.60;14.13;;;;;;;;;;5073451;28;20127;-61
2021/05/07 04:15:20;;;;;;;24.83;14.27;;;;;;;;;;5033681;28;20073;-61
2021/05/07 04:18:06;;;;;;;20.85;13.40;;;;;;;;;;5033596;28;20053;-61
2021/05/07 04:20:51;;;;;;;26.95;15.00;;;;;;;;;;5044413;28;20518;-61
2021/05/07 04:23:36;;;;;;;26.20;14.82;;;;;;;;;;5072663;28;20048;-61
2021/05/07 04:26:22;;;;;;;28.30;16.00;;;;;;;;;;5073227;28;20048;-61
2021/05/07 04:29:08;;;;;;;25.58;15.18;;;;;;;;;;5073419;28;20052;-61
2021/05/07 04:31:54;;;;;;;32.70;16.90;;;;;;;;;;5071452;28;20056;-61
2021/05/07 04:34:39;;;;;;;23.42;13.85;;;;;;;;;;5073038;28;20075;-60
2021/05/07 04:37:24;;;;;;;30.98;17.08;;;;;;;;;;5073123;28;20410;-61
2021/05/07 04:40:10;;;;;;;21.48;14.88;;;;;;;;;;5072949;28;20044;-61
2021/05/07 04:42:56;;;;;;;25.48;15.98;;;;;;;;;;5071668;28;20083;-61
2021/05/07 04:45:41;;;;;;;19.38;13.73;;;;;;;;;;5072744;28;20131;-61
2021/05/07 04:48:27;;;;;;;12.63;8.40;;;;;;;;;;5072950;28;20044;-61
2021/05/07 04:51:12;;;;;;;12.90;8.50;;;;;;;;;;5071372;28;20520;-61
2021/05/07 04:53:59;;;;;;;12.85;7.65;;;;;;;;;;5052927;28;20041;-61
2021/05/07 04:56:44;;;;;;;6.05;5.28;;;;;;;;;;5052910;28;20052;-62
2021/05/07 04:59:33;;;;;;;6.72;5.40;;;;;;;;;;5052527;28;20052;-60
2021/05/07 05:02:21;;;;;;;8.05;5.88;;;;;;;;;;5058167;28;20132;-62
2021/05/07 05:05:06;;;;;;;4.47;3.72;;;;;;;;;;5072698;28;20049;-62
2021/05/07 05:07:57;;;;;;;3.67;3.30;;;;;;;;;;5072294;28;20482;-61
2021/05/07 05:10:42;;;;;;;5.35;2.72;;;;;;;;;;5072388;28;20044;-61
2021/05/07 05:13:28;;;;;;;4.38;2.30;;;;;;;;;;5070458;28;20040;-61
2021/05/07 05:16:14;;;;;;;2.30;1.55;;;;;;;;;;5072325;28;20060;-61
2021/05/07 05:18:59;;;;;;;2.08;1.88;;;;;;;;;;5051053;28;20041;-61
2021/05/07 05:21:44;;;;;;;1.70;1.50;;;;;;;;;;5051513;28;20551;-61
2021/05/07 05:24:30;;;;;;;1.73;1.50;;;;;;;;;;5050499;28;20053;-61
2021/05/07 05:27:15;;;;;;;1.55;1.13;;;;;;;;;;5049048;28;20098;-62
2021/05/07 05:30:00;;;;;;;2.10;1.50;;;;;;;;;;5052049;28;20045;-63
2021/05/07 05:32:49;;;;;;;1.30;1.20;;;;;;;;;;5052377;28;20110;-61
2021/05/07 05:35:34;;;;;;;1.88;1.20;;;;;;;;;;5071875;28;20048;-61
2021/05/07 05:38:19;;;;;;;1.95;1.25;;;;;;;;;;5072298;28;20045;-61
2021/05/07 05:41:05;;;;;;;1.30;1.20;;;;;;;;;;5071633;28;20059;-60
2021/05/07 05:43:51;;;;;;;1.83;1.23;;;;;;;;;;5070640;28;20075;-62
2021/05/07 05:46:39;;;;;;;1.58;1.42;;;;;;;;;;5067022;28;20498;-62
2021/05/07 05:49:24;;;;;;;2.33;1.48;;;;;;;;;;5071917;28;20076;-62
2021/05/07 05:52:09;;;;;;;2.58;1.45;;;;;;;;;;5066130;28;20394;-62
2021/05/07 05:54:55;;;;;;;2.30;1.63;;;;;;;;;;5071944;28;20047;-62
2021/05/07 05:57:40;;;;;;;1.88;1.58;;;;;;;;;;5071935;28;20135;-61
2021/05/07 06:00:26;;;;;;;2.90;1.80;;;;;;;;;;5067725;28;20049;-61
2021/05/07 06:03:11;;;;;;;2.58;1.77;;;;;;;;;;5070449;28;20186;-62
2021/05/07 06:05:57;;;;;;;4.28;1.80;;;;;;;;;;5071824;28;20125;-61
2021/05/07 06:08:42;;;;;;;3.00;1.63;;;;;;;;;;5070343;28;20438;-62
2021/05/07 06:11:27;;;;;;;2.15;1.80;;;;;;;;;;5071651;28;20128;-61
2021/05/07 06:14:13;;;;;;;2.08;1.60;;;;;;;;;;5071775;28;20054;-62
2021/05/07 06:16:58;;;;;;;3.15;2.20;;;;;;;;;;5071809;28;20049;-62
2021/05/07 06:19:44;;;;;;;2.65;2.20;;;;;;;;;;5068941;28;20082;-61
2021/05/07 06:22:30;;;;;;;3.22;2.10;;;;;;;;;;5070704;28;20076;-61
2021/05/07 06:25:17;;;;;;;2.10;1.60;;;;;;;;;;5071641;28;20127;-60
2021/05/07 06:28:02;;;;;;;2.90;2.30;;;;;;;;;;5071757;28;20045;-61
2021/05/07 06:30:48;;;;;;;2.15;1.95;;;;;;;;;;5069822;28;20049;-60
2021/05/07 06:33:33;;;;;;;3.45;2.10;;;;;;;;;;5070195;28;20056;-61
2021/05/07 06:36:20;;;;;;;2.67;1.83;;;;;;;;;;5071627;28;20173;-62
2021/05/07 06:39:05;;;;;;;3.30;2.20;;;;;;;;;;5071774;28;20495;-61
2021/05/07 06:41:51;;;;;;;2.33;2.08;;;;;;;;;;5068042;28;20040;-61
2021/05/07 06:44:37;;;;;;;2.70;2.33;;;;;;;;;;5071477;28;20110;-62
2021/05/07 06:47:22;;;;;;;2.60;2.40;;;;;;;;;;5072150;28;20040;-61
2021/05/07 06:50:08;;;;;;;2.70;2.25;;;;;;;;;;5072680;28;20040;-61
2021/05/07 06:52:53;;;;;;;3.13;2.25;;;;;;;;;;5074350;28;20046;-61
2021/05/07 06:55:38;;;;;;;3.50;2.90;;;;;;;;;;5075102;28;20051;-61
2021/05/07 06:58:24;;;;;;;2.92;2.67;;;;;;;;;;5072351;28;20049;-61
2021/05/07 07:01:11;;;;;;;5.15;3.47;;;;;;;;;;5068827;28;20502;-61
2021/05/07 07:03:56;;;;;;;5.75;3.38;;;;;;;;;;5074777;28;20591;-61
2021/05/07 07:06:41;;;;;;;4.38;3.22;;;;;;;;;;5074800;28;20041;-61
2021/05/07 07:09:27;;;;;;;5.18;3.45;;;;;;;;;;5070450;28;20048;-61
2021/05/07 07:12:13;;;;;;;4.10;3.70;;;;;;;;;;5065358;28;20422;-61
2021/05/07 07:14:58;;;;;;;4.88;3.17;;;;;;;;;;5074623;28;20040;-61
2021/05/07 07:17:44;;;;;;;4.50;2.67;;;;;;;;;;5074937;28;20136;-61
2021/05/07 07:20:30;;;;;;;3.35;2.28;;;;;;;;;;5071864;28;20098;-61
2021/05/07 07:23:16;;;;;;;3.65;2.60;;;;;;;;;;5074591;28;20676;-62
2021/05/07 07:26:01;;;;;;;4.00;2.85;;;;;;;;;;5074449;28;20479;-61
2021/05/07 07:28:49;;;;;;;3.28;2.63;;;;;;;;;;5074603;28;20040;-61
2021/05/07 07:31:34;;;;;;;3.25;2.78;;;;;;;;;;5071778;28;20490;-61
2021/05/07 07:34:19;;;;;;;2.60;2.40;;;;;;;;;;5074296;28;20388;-62
2021/05/07 07:37:05;;;;;;;2.40;2.20;;;;;;;;;;5074445;28;20057;-61
2021/05/07 07:39:50;;;;;;;2.63;2.00;;;;;;;;;;5072415;28;20052;-61
2021/05/07 07:42:35;;;;;;;2.97;2.15;;;;;;;;;;5074504;28;20052;-61
2021/05/07 07:45:21;;;;;;;2.80;2.60;;;;;;;;;;5068110;28;20064;-61
2021/05/07 07:48:07;;;;;;;5.97;3.00;;;;;;;;;;5074093;28;20453;-62
2021/05/07 07:50:52;;;;;;;2.97;2.63;;;;;;;;;;5068928;28;20041;-61
2021/05/07 07:53:38;;;;;;;4.63;2.75;;;;;;;;;;5074005;28;20040;-61
2021/05/07 07:56:23;;;;;;;2.85;2.25;;;;;;;;;;5068181;28;20044;-61
2021/05/07 07:59:08;;;;;;;3.25;2.15;;;;;;;;;;5073853;28;20392;-62
2021/05/07 08:01:54;;;;;;;4.15;2.25;;;;;;;;;;5070998;28;20115;-62
2021/05/07 08:04:39;;;;;;;4.43;2.53;;;;;;;;;;5073783;28;20044;-62
2021/05/07 08:07:24;;;;;;;5.65;2.67;;;;;;;;;;5073787;28;20040;-62
2021/05/07 08:10:10;;;;;;;5.25;2.45;;;;;;;;;;5072015;28;20127;-62
2021/05/07 08:12:56;;;;;;;3.10;2.30;;;;;;;;;;5073780;28;20048;-63
2021/05/07 08:15:41;;;;;;;2.75;1.98;;;;;;;;;;5073777;28;20044;-63
2021/05/07 08:18:26;;;;;;;4.18;1.98;;;;;;;;;;5073771;28;20052;-63
2021/05/07 08:21:12;;;;;;;7.30;2.50;;;;;;;;;;5065989;28;20494;-63
2021/05/07 08:23:57;;;;;;;3.47;1.98;;;;;;;;;;5053368;28;20045;-62
2021/05/07 08:26:43;;;;;;;2.92;1.40;;;;;;;;;;5053323;28;20475;-61
2021/05/07 08:29:28;;;;;;;2.10;1.30;;;;;;;;;;5053586;28;20049;-62
2021/05/07 08:32:13;;;;;;;2.22;1.10;;;;;;;;;;5073267;28;20127;-62
2021/05/07 08:34:59;;;;;;;3.33;1.40;;;;;;;;;;5073135;28;20482;-62
2021/05/07 08:37:44;;;;;;;3.97;1.75;;;;;;;;;;5073238;28;20049;-61
2021/05/07 08:40:30;;;;;;;4.53;1.50;;;;;;;;;;5071246;28;20119;-61
2021/05/07 08:43:15;;;;;;;1.98;0.70;;;;;;;;;;5073262;28;20049;-61
2021/05/07 08:46:05;;;;;;;3.33;1.13;;;;;;;;;;5096568;22;20052;-65
2021/05/07 08:48:50;;;;;;;1.58;0.70;;;;;;;;;;5052069;28;20041;-64
2021/05/07 08:51:35;;;;;;;1.63;0.82;;;;;;;;;;5051565;28;20045;-64
2021/05/07 08:54:21;;;;;;;4.15;1.00;;;;;;;;;;5051894;28;20045;-64
2021/05/07 08:57:06;;;;;;;1.92;1.13;;;;;;;;;;5052130;28;20040;-64
2021/05/07 08:59:52;;;;;;;2.80;1.00;;;;;;;;;;5032655;28;20499;-65
2021/05/07 09:02:37;;;;;;;2.80;1.00;;;;;;;;;;5033350;28;20045;-64
2021/05/07 09:05:32;;;;;;;5.82;1.40;;;;;;;;;;5052438;28;20483;-64
2021/05/07 09:08:17;;;;;;;3.42;1.55;;;;;;;;;;5032634;28;20046;-64
2021/05/07 09:11:02;;;;;;;2.88;1.02;;;;;;;;;;5045039;28;20045;-64
2021/05/07 09:13:48;;;;;;;2.47;1.30;;;;;;;;;;5052429;28;20049;-64
2021/05/07 09:16:33;;;;;;;5.55;1.63;;;;;;;;;;5051608;28;20049;-64
2021/05/07 09:19:19;;;;;;;1.92;1.23;;;;;;;;;;5052374;28;20433;-64
2021/05/07 09:22:04;;;;;;;1.75;1.08;;;;;;;;;;5052457;28;20048;-64
2021/05/07 09:24:50;;;;;;;3.63;1.20;;;;;;;;;;5051478;28;20040;-64
2021/05/07 09:27:35;;;;;;;2.33;0.80;;;;;;;;;;5052168;28;20534;-65
2021/05/07 09:30:29;;;;;;;1.52;0.70;;;;;;;;;;5050254;28;20056;-64
2021/05/07 09:33:15;;;;;;;3.72;0.80;;;;;;;;;;5052224;28;20044;-64
2021/05/07 09:36:00;;;;;;;3.33;0.90;;;;;;;;;;5052055;28;20040;-64
2021/05/07 09:38:45;;;;;;;6.28;1.30;;;;;;;;;;5050186;28;20131;-64
2021/05/07 09:41:40;;;;;;;2.33;0.82;;;;;;;;;;5051902;28;20041;-64
2021/05/07 09:44:25;;;;;;;1.45;0.70;;;;;;;;;;5050844;28;20045;-64
2021/05/07 09:47:15;;;;;;;3.55;0.82;;;;;;;;;;5051906;28;20483;-64
2021/05/07 09:50:04;;;;;;;0.75;0.50;;;;;;;;;;5051752;28;20037;-64
2021/05/07 09:52:52;;;;;;;2.15;1.00;;;;;;;;;;5050109;28;20041;-63
2021/05/07 09:55:38;;;;;;;3.42;1.20;;;;;;;;;;5051113;28;20288;-64
2021/05/07 09:58:23;;;;;;;2.53;0.63;;;;;;;;;;5050118;28;20045;-64
2021/05/07 10:01:09;;;;;;;1.45;0.68;;;;;;;;;;5051667;28;20119;-64
2021/05/07 10:03:58;;;;;;;3.30;0.77;;;;;;;;;;5050856;28;20127;-64
2021/05/07 10:06:43;;;;;;;1.27;0.60;;;;;;;;;;5051824;28;20132;-63
2021/05/07 10:09:30;;;;;;;2.05;1.15;;;;;;;;;;5050833;28;20047;-63
2021/05/07 10:12:17;;;;;;;4.28;0.85;;;;;;;;;;5051799;28;20045;-63
2021/05/07 10:15:03;;;;;;;2.80;0.50;;;;;;;;;;5050900;28;20140;-63
2021/05/07 10:17:49;;;;;;;1.27;0.70;;;;;;;;;;5051720;28;20418;-63
2021/05/07 10:20:38;;;;;;;1.63;0.47;;;;;;;;;;5050910;28;20198;-64
2021/05/07 10:23:23;;;;;;;1.02;0.30;;;;;;;;;;5055624;28;20045;-64
2021/05/07 10:26:10;;;;;;;1.98;0.52;;;;;;;;;;5055575;28;20479;-63
2021/05/07 10:28:55;;;;;;;0.75;0.30;;;;;;;;;;5054023;28;20400;-64
2021/05/07 10:31:47;;;;;;;2.00;0.52;;;;;;;;;;5054880;28;20049;-63
2021/05/07 10:34:42;;;;;;;1.63;0.50;;;;;;;;;;5054816;28;20547;-63
2021/05/07 10:37:37;;;;;;;3.92;0.75;;;;;;;;;;5055647;28;20057;-64
2021/05/07 10:40:25;;;;;;;2.15;0.60;;;;;;;;;;5054673;28;20053;-63
2021/05/07 10:43:11;;;;;;;1.95;0.60;;;;;;;;;;5055318;28;20056;-63
2021/05/07 10:45:57;;;;;;;1.45;0.75;;;;;;;;;;5055159;28;20041;-65
2021/05/07 10:48:50;;;;;;;0.88;0.50;;;;;;;;;;5054547;28;20041;-64
2021/05/07 10:51:36;;;;;;;0.90;0.40;;;;;;;;;;5054997;28;20040;-64
2021/05/07 10:54:21;;;;;;;1.67;0.43;;;;;;;;;;5053118;28;20041;-63
2021/05/07 10:57:18;;;;;;;0.88;0.50;;;;;;;;;;5049705;28;20053;-63
2021/05/07 11:00:12;;;;;;;1.20;0.40;;;;;;;;;;5051361;28;20036;-64
2021/05/07 11:02:57;;;;;;;0.98;0.30;;;;;;;;;;5035495;28;20045;-64
2021/05/07 11:05:46;;;;;;;1.42;0.70;;;;;;;;;;5035202;28;20084;-64
2021/05/07 11:08:32;;;;;;;0.60;0.30;;;;;;;;;;5035236;28;20128;-63
2021/05/07 11:11:17;;;;;;;1.88;0.40;;;;;;;;;;5042405;28;20080;-64
2021/05/07 11:14:03;;;;;;;1.10;0.40;;;;;;;;;;5054814;28;20040;-63
2021/05/07 11:16:49;;;;;;;1.20;0.77;;;;;;;;;;5053879;28;20045;-64
2021/05/07 11:19:35;;;;;;;1.77;0.50;;;;;;;;;;5054526;28;20141;-63
2021/05/07 11:22:25;;;;;;;2.00;0.50;;;;;;;;;;5052759;28;20434;-63
2021/05/07 11:25:10;;;;;;;0.47;0.32;;;;;;;;;;5054368;28;20049;-64
2021/05/07 11:27:58;;;;;;;1.33;0.63;;;;;;;;;;5038413;28;20736;-64
2021/05/07 11:30:47;;;;;;;4.38;0.88;;;;;;;;;;5054072;28;20045;-65
2021/05/07 11:33:32;;;;;;;2.35;0.60;;;;;;;;;;5052994;28;20045;-64
2021/05/07 11:36:18;;;;;;;0.90;0.55;;;;;;;;;;5053937;28;20116;-64
2021/05/07 11:39:03;;;;;;;2.97;0.73;;;;;;;;;;5053459;28;20128;-64
2021/05/07 11:41:48;;;;;;;2.88;0.50;;;;;;;;;;5053038;28;20132;-64
2021/05/07 11:44:33;;;;;;;0.73;0.40;;;;;;;;;;5054085;28;20045;-63
2021/05/07 11:47:19;;;;;;;0.70;0.40;;;;;;;;;;5053097;28;20491;-63
2021/05/07 11:50:06;;;;;;;1.85;0.30;;;;;;;;;;5052815;28;20041;-63
2021/05/07 11:52:51;;;;;;;2.08;0.60;;;;;;;;;;5054103;28;20049;-63
2021/05/07 11:55:37;;;;;;;1.17;0.30;;;;;;;;;;5034160;28;20046;-62
2021/05/07 11:58:30;;;;;;;1.85;0.50;;;;;;;;;;5034121;28;20681;-62
2021/05/07 12:01:17;;;;;;;1.63;0.35;;;;;;;;;;5044308;28;20618;-63
2021/05/07 12:04:02;;;;;;;4.28;0.73;;;;;;;;;;5052800;28;20041;-63
2021/05/07 12:06:47;;;;;;;1.40;0.70;;;;;;;;;;5053011;28;20041;-63
2021/05/07 12:09:33;;;;;;;3.00;0.43;;;;;;;;;;5053686;28;20397;-63
2021/05/07 12:12:18;;;;;;;2.47;0.63;;;;;;;;;;5033776;28;20095;-61
2021/05/07 12:15:06;;;;;;;1.30;0.60;;;;;;;;;;5039309;28;20072;-62
2021/05/07 12:17:52;;;;;;;3.15;0.40;;;;;;;;;;5053722;28;20048;-62
2021/05/07 12:20:43;;;;;;;2.72;0.65;;;;;;;;;;5052516;28;20041;-62
2021/05/07 12:23:42;;;;;;;1.95;0.50;;;;;;;;;;5053558;28;20057;-63
2021/05/07 12:26:27;;;;;;;2.13;0.75;;;;;;;;;;5052497;28;20678;-64
2021/05/07 12:29:12;;;;;;;2.28;0.80;;;;;;;;;;5053430;28;20407;-63
2021/05/07 12:32:02;;;;;;;3.00;0.65;;;;;;;;;;5053470;28;20072;-61
2021/05/07 12:35:00;;;;;;;5.47;0.80;;;;;;;;;;5053120;28;20379;-63
2021/05/07 12:37:46;;;;;;;1.00;0.47;;;;;;;;;;5053190;28;20133;-62
2021/05/07 12:40:31;;;;;;;1.63;0.70;;;;;;;;;;5050963;28;20090;-61
2021/05/07 12:43:16;;;;;;;2.20;0.80;;;;;;;;;;5053199;28;20056;-61
2021/05/07 12:46:02;;;;;;;2.22;0.77;;;;;;;;;;5051544;28;20149;-61
2021/05/07 12:48:47;;;;;;;1.45;0.50;;;;;;;;;;5052162;28;20045;-61
2021/05/07 12:51:33;;;;;;;1.10;0.40;;;;;;;;;;5050938;28;20049;-62
2021/05/07 12:54:18;;;;;;;1.25;0.60;;;;;;;;;;5052312;28;20049;-61
2021/05/07 12:57:04;;;;;;;1.38;0.50;;;;;;;;;;5032990;28;20451;-61
2021/05/07 12:59:49;;;;;;;1.58;0.85;;;;;;;;;;5032861;28;20053;-62
2021/05/07 13:02:34;;;;;;;2.85;0.80;;;;;;;;;;5044695;28;20053;-62
2021/05/07 13:05:20;;;;;;;1.00;0.50;;;;;;;;;;5052704;28;20049;-63
2021/05/07 13:08:05;;;;;;;1.77;0.47;;;;;;;;;;5052053;28;20044;-61
2021/05/07 13:10:51;;;;;;;1.55;0.80;;;;;;;;;;5051012;28;20399;-62
2021/05/07 13:13:39;;;;;;;1.83;0.70;;;;;;;;;;5051901;28;20190;-60
2021/05/07 13:16:24;;;;;;;2.78;0.90;;;;;;;;;;5051390;28;20044;-62
2021/05/07 13:19:09;;;;;;;2.22;0.82;;;;;;;;;;5052518;28;20183;-62
2021/05/07 13:21:55;;;;;;;2.38;0.70;;;;;;;;;;5052828;28;20051;-61
2021/05/07 13:24:40;;;;;;;1.80;0.50;;;;;;;;;;5052296;28;20517;-62
2021/05/07 13:27:26;;;;;;;0.77;0.60;;;;;;;;;;5051578;28;20087;-62
2021/05/07 13:30:11;;;;;;;2.17;0.77;;;;;;;;;;5052340;28;20049;-61
2021/05/07 13:32:56;;;;;;;2.33;0.63;;;;;;;;;;5051067;28;20045;-62
2021/05/07 13:35:45;;;;;;;1.85;0.73;;;;;;;;;;5052203;28;20075;-62
2021/05/07 13:38:30;;;;;;;2.85;1.15;;;;;;;;;;5049690;28;20132;-62
2021/05/07 13:41:15;;;;;;;1.27;0.90;;;;;;;;;;5052043;28;20053;-62
2021/05/07 13:44:00;;;;;;;1.77;1.00;;;;;;;;;;5051039;28;20639;-62
2021/05/07 13:46:46;;;;;;;1.67;0.80;;;;;;;;;;5051910;28;20056;-62
2021/05/07 13:49:31;;;;;;;2.28;0.60;;;;;;;;;;5051079;28;20049;-62
2021/05/07 13:52:17;;;;;;;1.85;0.93;;;;;;;;;;5051239;28;20045;-62
2021/05/07 13:55:03;;;;;;;1.35;0.60;;;;;;;;;;5050742;28;20040;-61
2021/05/07 13:57:48;;;;;;;2.78;0.85;;;;;;;;;;5031614;28;20492;-61
2021/05/07 14:00:34;;;;;;;1.85;0.73;;;;;;;;;;5031795;28;20077;-62
2021/05/07 14:03:19;;;;;;;1.83;0.82;;;;;;;;;;5044616;28;20106;-62
2021/05/07 14:06:05;;;;;;;1.60;0.80;;;;;;;;;;5051027;28;20057;-61
2021/05/07 14:08:50;;;;;;;1.70;0.98;;;;;;;;;;5049750;28;20479;-62
2021/05/07 14:11:35;;;;;;;2.58;0.75;;;;;;;;;;5050437;28;20124;-62
2021/05/07 14:14:20;;;;;;;1.90;0.82;;;;;;;;;;5051146;28;20052;-63
2021/05/07 14:17:06;;;;;;;1.98;1.10;;;;;;;;;;5049619;28;20502;-62
2021/05/07 14:19:51;;;;;;;1.65;0.90;;;;;;;;;;5042142;28;20044;-63
2021/05/07 14:22:36;;;;;;;4.57;0.93;;;;;;;;;;5042588;28;20465;-62
2021/05/07 14:25:22;;;;;;;2.05;1.08;;;;;;;;;;5039798;28;20175;-61
2021/05/07 14:28:07;;;;;;;1.63;1.20;;;;;;;;;;5047339;28;20037;-63
2021/05/07 14:30:52;;;;;;;2.13;0.95;;;;;;;;;;5042641;28;20041;-63
2021/05/07 14:33:38;;;;;;;2.42;1.10;;;;;;;;;;5044489;28;20052;-62
2021/05/07 14:36:23;;;;;;;2.25;0.82;;;;;;;;;;5049175;28;20044;-62
2021/05/07 14:39:08;;;;;;;1.42;0.80;;;;;;;;;;5047680;28;20044;-63
2021/05/07 14:41:54;;;;;;;21.42;1.60;;;;;;;;;;5049981;28;20132;-62
2021/05/07 14:44:39;;;;;;;2.03;1.00;;;;;;;;;;5049667;28;20120;-61
2021/05/07 14:47:24;;;;;;;3.67;1.13;;;;;;;;;;5051598;28;20415;-62
2021/05/07 14:50:10;;;;;;;3.15;0.90;;;;;;;;;;5046825;28;20081;-62
2021/05/07 14:52:55;;;;;;;2.88;0.80;;;;;;;;;;5031560;28;20057;-61
2021/05/07 14:55:41;;;;;;;4.32;1.45;;;;;;;;;;5033955;28;20041;-61
2021/05/07 14:58:26;;;;;;;1.65;0.77;;;;;;;;;;5031555;28;20045;-62
2021/05/07 15:01:11;;;;;;;1.95;0.40;;;;;;;;;;5042016;28;20487;-61
2021/05/07 15:03:57;;;;;;;1.25;0.45;;;;;;;;;;5050675;28;20055;-61
2021/05/07 15:06:42;;;;;;;1.50;0.70;;;;;;;;;;5049520;28;20099;-62
2021/05/07 15:09:27;;;;;;;2.80;0.65;;;;;;;;;;5053309;28;20479;-62
2021/05/07 15:12:13;;;;;;;1.65;0.40;;;;;;;;;;5054064;28;20073;-62
2021/05/07 15:14:59;;;;;;;1.98;0.45;;;;;;;;;;5054710;28;20487;-62
2021/05/07 15:17:44;;;;;;;1.70;0.50;;;;;;;;;;5054042;28;20041;-62
2021/05/07 15:20:29;;;;;;;1.27;0.70;;;;;;;;;;5054509;28;20045;-62
2021/05/07 15:23:15;;;;;;;1.15;0.47;;;;;;;;;;5054849;28;20139;-62
2021/05/07 15:26:02;;;;;;;2.95;0.73;;;;;;;;;;5053952;28;20415;-61
2021/05/07 15:28:47;;;;;;;1.60;0.50;;;;;;;;;;5054522;28;20427;-61
2021/05/07 15:31:33;;;;;;;1.20;0.90;;;;;;;;;;5052971;28;20487;-62
2021/05/07 15:34:18;;;;;;;1.65;0.82;;;;;;;;;;5054375;28;20390;-61
2021/05/07 15:37:03;;;;;;;1.23;0.40;;;;;;;;;;5054420;28;20494;-61
2021/05/07 15:39:49;;;;;;;0.85;0.30;;;;;;;;;;5053539;28;20037;-61
2021/05/07 15:42:34;;;;;;;2.67;0.45;;;;;;;;;;5054212;28;20495;-62
2021/05/07 15:45:19;;;;;;;1.33;0.50;;;;;;;;;;5053855;28;20087;-62
2021/05/07 15:48:05;;;;;;;2.58;0.68;;;;;;;;;;5054127;28;20053;-62
2021/05/07 15:50:50;;;;;;;1.88;0.50;;;;;;;;;;5057618;28;20037;-61
2021/05/07 15:53:36;;;;;;;1.60;0.68;;;;;;;;;;5056354;28;20453;-62
2021/05/07 15:56:21;;;;;;;1.10;0.40;;;;;;;;;;5065167;28;20056;-63
2021/05/07 15:59:07;;;;;;;3.45;0.80;;;;;;;;;;5067863;28;20502;-62
2021/05/07 16:01:52;;;;;;;1.58;0.60;;;;;;;;;;5043178;28;20044;-62
2021/05/07 16:04:37;;;;;;;2.13;0.80;;;;;;;;;;5056742;28;20049;-62
2021/05/07 16:07:23;;;;;;;1.95;0.47;;;;;;;;;;5055548;28;21786;-63
2021/05/07 16:10:08;;;;;;;1.08;0.45;;;;;;;;;;5066032;28;20048;-62
2021/05/07 16:12:54;;;;;;;1.23;0.70;;;;;;;;;;5049170;28;20052;-62
2021/05/07 16:15:39;;;;;;;3.80;0.60;;;;;;;;;;5054781;28;20060;-62
2021/05/07 16:18:28;;;;;;;1.33;0.50;;;;;;;;;;5061446;28;20040;-62
2021/05/07 16:21:13;;;;;;;1.50;0.40;;;;;;;;;;5056370;28;20095;-63
2021/05/07 16:23:59;;;;;;;2.40;0.68;;;;;;;;;;5036676;28;20064;-62
2021/05/07 16:26:44;;;;;;;1.63;0.40;;;;;;;;;;5060740;28;20490;-62
2021/05/07 16:29:29;;;;;;;1.88;0.45;;;;;;;;;;5065282;28;20049;-61
2021/05/07 16:32:17;;;;;;;1.80;0.57;;;;;;;;;;5056015;28;20040;-61